createdAt,value
2017-10-11T00:00:21.987Z,2.40
2017-10-11T00:03:48.159Z,2.67
2017-10-11T00:07:13.605Z,2.70
2017-10-11T00:10:39.220Z,2.50
2017-10-11T00:14:05.410Z,2.10
2017-10-11T00:17:31.718Z,2.30
2017-10-11T00:20:57.286Z,2.30
2017-10-11T00:24:23.129Z,2.30
2017-10-11T00:27:48.674Z,3.00
2017-10-11T00:31:14.302Z,2.27
2017-10-11T00:34:40.785Z,2.30
2017-10-11T00:38:06.435Z,2.00
2017-10-11T00:41:31.798Z,2.73
2017-10-11T00:44:57.874Z,2.50
2017-10-11T00:48:23.399Z,2.63
2017-10-11T00:51:48.904Z,2.77
2017-10-11T00:55:14.935Z,3.50
2017-10-11T00:58:40.726Z,2.00
2017-10-11T01:02:07.057Z,2.50
2017-10-11T01:05:32.993Z,4.00
2017-10-11T01:08:59.189Z,2.77
2017-10-11T01:12:24.802Z,3.03
2017-10-11T01:15:50.796Z,2.27
2017-10-11T01:19:16.508Z,3.67
2017-10-11T01:22:47.323Z,2.30
2017-10-11T01:26:12.684Z,2.33
2017-10-11T01:29:38.216Z,2.70
2017-10-11T01:33:04.077Z,2.60
2017-10-11T01:36:29.529Z,2.50
2017-10-11T01:39:56.055Z,2.33
2017-10-11T01:43:22.020Z,2.50
2017-10-11T01:46:47.818Z,2.70
2017-10-11T01:50:13.405Z,2.17
2017-10-11T01:53:40.476Z,2.97
2017-10-11T01:57:05.869Z,2.57
2017-10-11T02:00:31.121Z,2.63
2017-10-11T02:03:56.532Z,2.40
2017-10-11T02:07:22.986Z,2.30
2017-10-11T02:10:49.380Z,2.10
2017-10-11T02:14:15.081Z,1.77
2017-10-11T02:17:40.621Z,2.00
2017-10-11T02:21:06.449Z,1.80
2017-10-11T02:24:32.242Z,1.57
2017-10-11T02:27:58.555Z,2.07
2017-10-11T02:31:24.675Z,1.80
2017-10-11T02:34:50.086Z,2.33
2017-10-11T02:38:15.390Z,2.17
2017-10-11T02:41:41.398Z,2.50
2017-10-11T02:45:07.245Z,2.03
2017-10-11T02:48:32.624Z,1.80
2017-10-11T02:51:58.453Z,2.70
2017-10-11T02:55:24.029Z,2.10
2017-10-11T02:58:49.414Z,2.20
2017-10-11T03:02:15.337Z,2.63
2017-10-11T03:05:40.756Z,2.50
2017-10-11T03:09:06.313Z,4.17
2017-10-11T03:12:32.409Z,3.00
2017-10-11T03:15:57.528Z,6.20
2017-10-11T03:19:22.845Z,2.27
2017-10-11T03:22:50.375Z,3.07
2017-10-11T03:26:15.650Z,2.23
2017-10-11T03:29:41.158Z,4.77
2017-10-11T03:33:06.893Z,2.90
2017-10-11T03:36:31.954Z,2.80
2017-10-11T03:39:57.523Z,2.87
2017-10-11T03:43:23.414Z,4.03
2017-10-11T03:46:48.590Z,3.10
2017-10-11T03:50:14.641Z,2.77
2017-10-11T03:53:40.706Z,2.93
2017-10-11T03:57:06.358Z,5.03
2017-10-11T04:00:32.346Z,3.77
2017-10-11T04:03:58.114Z,2.83
2017-10-11T04:07:23.525Z,2.50
2017-10-11T04:10:48.945Z,3.87
2017-10-11T04:14:14.636Z,3.57
2017-10-11T04:17:40.230Z,3.23
2017-10-11T04:21:05.750Z,2.33
2017-10-11T04:24:35.501Z,2.97
2017-10-11T04:28:00.913Z,2.93
2017-10-11T04:31:27.146Z,2.30
2017-10-11T04:34:54.124Z,2.17
2017-10-11T04:38:21.718Z,2.70
2017-10-11T04:41:47.802Z,2.53
2017-10-11T04:45:13.709Z,2.90
2017-10-11T04:48:39.192Z,3.60
2017-10-11T04:52:04.829Z,2.90
2017-10-11T04:55:31.517Z,2.77
2017-10-11T04:58:57.066Z,2.30
2017-10-11T05:02:22.572Z,1.90
2017-10-11T05:05:48.445Z,2.40
2017-10-11T05:09:18.214Z,2.07
2017-10-11T05:12:44.261Z,2.30
2017-10-11T05:16:10.597Z,1.90
2017-10-11T05:19:36.630Z,3.00
2017-10-11T05:23:02.933Z,1.80
2017-10-11T05:26:33.130Z,1.90
2017-10-11T05:29:58.524Z,1.70
2017-10-11T05:33:23.929Z,1.97
2017-10-11T05:36:58.304Z,1.90
2017-10-11T05:40:23.452Z,2.70
2017-10-11T05:43:48.826Z,1.80
2017-10-11T05:47:14.313Z,1.43
2017-10-11T05:50:40.196Z,3.53
2017-10-11T05:54:05.521Z,2.03
2017-10-11T05:57:30.973Z,1.73
2017-10-11T06:00:57.143Z,1.63
2017-10-11T06:04:22.689Z,1.40
2017-10-11T06:07:49.521Z,1.50
2017-10-11T06:11:19.653Z,1.93
2017-10-11T06:14:46.267Z,1.53
2017-10-11T06:18:13.184Z,1.30
2017-10-11T06:21:38.287Z,1.70
2017-10-11T06:25:03.419Z,1.67
2017-10-11T06:28:29.526Z,1.30
2017-10-11T06:31:54.870Z,1.50
2017-10-11T06:35:20.293Z,1.60
2017-10-11T06:38:46.649Z,2.00
2017-10-11T06:42:11.797Z,2.47
2017-10-11T06:45:37.424Z,3.20
2017-10-11T06:49:05.114Z,1.80
2017-10-11T06:52:30.536Z,2.23
2017-10-11T06:55:56.751Z,2.77
2017-10-11T06:59:23.666Z,2.20
2017-10-11T07:02:48.802Z,3.37
2017-10-11T07:06:15.627Z,3.17
2017-10-11T07:09:46.268Z,4.80
2017-10-11T07:13:11.624Z,5.10
2017-10-11T07:16:37.248Z,6.70
2017-10-11T07:20:03.113Z,3.47
2017-10-11T07:23:29.118Z,4.90
2017-10-11T07:26:59.495Z,3.40
2017-10-11T07:30:24.883Z,4.50
2017-10-11T07:33:50.767Z,4.43
2017-10-11T07:37:21.002Z,3.77
2017-10-11T07:40:50.787Z,5.90
2017-10-11T07:44:15.910Z,4.40
2017-10-11T07:47:42.001Z,5.60
2017-10-11T07:51:08.220Z,4.33
2017-10-11T07:54:33.683Z,5.60
2017-10-11T07:57:59.421Z,3.37
2017-10-11T08:01:25.169Z,6.50
2017-10-11T08:04:59.300Z,4.70
2017-10-11T08:08:24.981Z,5.83
2017-10-11T08:11:50.474Z,3.53
2017-10-11T08:15:16.278Z,5.00
2017-10-11T08:18:51.402Z,4.47
2017-10-11T08:22:16.811Z,5.90
2017-10-11T08:25:43.070Z,3.00
2017-10-11T08:29:08.701Z,4.23
2017-10-11T08:32:34.101Z,3.13
2017-10-11T08:39:33.456Z,5.40
2017-10-11T08:42:59.702Z,4.57
2017-10-11T08:46:33.598Z,2.93
2017-10-11T08:49:58.798Z,4.30
2017-10-11T08:53:24.342Z,3.17
2017-10-11T08:56:49.899Z,3.57
2017-10-11T09:00:15.299Z,3.40
2017-10-11T09:03:40.541Z,3.80
2017-10-11T09:07:05.950Z,8.00
2017-10-11T09:10:31.497Z,4.43
2017-10-11T09:13:56.734Z,2.50
2017-10-11T09:17:22.737Z,3.70
2017-10-11T09:20:48.617Z,4.30
2017-10-11T09:24:15.072Z,4.23
2017-10-11T09:27:40.421Z,3.53
2017-10-11T09:31:06.262Z,2.87
2017-10-11T09:34:31.842Z,3.90
2017-10-11T09:37:57.374Z,3.50
2017-10-11T09:41:26.944Z,4.87
2017-10-11T09:44:53.018Z,3.03
2017-10-11T09:48:18.458Z,3.20
2017-10-11T09:51:44.173Z,4.07
2017-10-11T09:55:09.617Z,2.50
2017-10-11T09:58:37.041Z,2.53
2017-10-11T10:02:03.060Z,3.10
2017-10-11T10:05:28.826Z,2.60
2017-10-11T10:08:54.285Z,4.90
2017-10-11T10:12:26.209Z,3.40
2017-10-11T10:15:53.017Z,2.57
2017-10-11T10:19:23.167Z,3.63
2017-10-11T10:22:48.667Z,2.10
2017-10-11T10:26:14.035Z,4.20
2017-10-11T10:29:44.098Z,2.80
2017-10-11T10:33:09.617Z,2.37
2017-10-11T10:36:36.849Z,5.80
2017-10-11T10:40:03.414Z,3.43
2017-10-11T10:43:29.039Z,2.60
2017-10-11T10:46:54.624Z,3.73
2017-10-11T10:50:20.358Z,7.70
2017-10-11T10:53:46.498Z,21.80
2017-10-11T10:57:12.820Z,48.90
2017-10-11T11:00:39.774Z,47.30
2017-10-11T11:04:05.459Z,54.40
2017-10-11T11:07:34.263Z,56.57
2017-10-11T11:11:00.701Z,48.33
2017-10-11T11:14:28.406Z,46.43
2017-10-11T11:17:54.135Z,44.07
2017-10-11T11:21:19.317Z,43.53
2017-10-11T11:24:44.492Z,32.80
2017-10-11T11:28:09.858Z,39.90
2017-10-11T11:31:34.969Z,31.37
2017-10-11T11:35:03.150Z,29.87
2017-10-11T11:38:32.645Z,25.13
2017-10-11T11:41:57.997Z,30.17
2017-10-11T11:45:24.470Z,21.23
2017-10-11T11:48:51.251Z,22.33
2017-10-11T11:52:17.016Z,24.10
2017-10-11T11:55:45.061Z,21.57
2017-10-11T11:59:16.278Z,22.47
2017-10-11T12:02:43.725Z,20.87
2017-10-11T12:06:18.555Z,22.40
2017-10-11T12:09:46.873Z,18.67
2017-10-11T12:13:11.985Z,17.13
2017-10-11T12:16:37.116Z,16.10
2017-10-11T12:20:02.504Z,16.43
2017-10-11T12:23:31.744Z,14.93
2017-10-11T12:26:58.435Z,13.60
2017-10-11T12:30:31.259Z,16.30
2017-10-11T12:33:56.841Z,12.77
2017-10-11T12:37:22.254Z,15.10
2017-10-11T12:40:48.530Z,17.73
2017-10-11T12:44:14.415Z,12.03
2017-10-11T12:47:39.947Z,15.40
2017-10-11T12:51:14.861Z,13.23
2017-10-11T12:54:40.973Z,11.70
2017-10-11T12:58:06.389Z,10.00
2017-10-11T13:01:32.376Z,12.97
2017-10-11T13:04:57.590Z,11.47
2017-10-11T13:08:27.550Z,11.13
2017-10-11T13:11:57.074Z,12.43
2017-10-11T13:15:23.318Z,12.63
2017-10-11T13:18:49.126Z,9.93
2017-10-11T13:22:14.511Z,9.57
2017-10-11T13:25:44.389Z,12.17
2017-10-11T13:29:10.927Z,10.83
2017-10-11T13:32:37.346Z,9.40
2017-10-11T13:36:06.927Z,9.50
2017-10-11T13:39:33.122Z,9.13
2017-10-11T13:42:58.642Z,9.37
2017-10-11T13:46:24.982Z,9.27
2017-10-11T13:49:50.902Z,9.43
2017-10-11T13:53:16.439Z,9.37
2017-10-11T13:56:50.568Z,7.60
2017-10-11T14:00:20.411Z,7.07
2017-10-11T14:03:48.454Z,10.10
2017-10-11T14:07:15.105Z,10.37
2017-10-11T14:10:44.046Z,7.70
2017-10-11T14:14:09.264Z,8.30
2017-10-11T14:17:43.174Z,7.60
2017-10-11T14:21:10.722Z,7.37
2017-10-11T14:24:39.556Z,6.87
2017-10-11T14:28:11.881Z,7.00
2017-10-11T14:31:39.870Z,8.20
2017-10-11T14:35:10.182Z,7.03
2017-10-11T14:38:36.239Z,6.77
2017-10-11T14:42:02.585Z,7.37
2017-10-11T14:45:31.766Z,6.20
2017-10-11T14:48:56.922Z,5.53
2017-10-11T14:52:22.429Z,6.80
2017-10-11T14:55:52.078Z,5.07
2017-10-11T14:59:18.777Z,6.23
2017-10-11T15:02:47.494Z,5.30
2017-10-11T15:06:12.777Z,5.10
2017-10-11T15:09:40.482Z,5.57
2017-10-11T15:13:08.683Z,6.13
2017-10-11T15:16:34.143Z,6.03
2017-10-11T15:20:05.077Z,5.07
2017-10-11T15:23:31.195Z,7.27
2017-10-11T15:26:56.793Z,4.53
2017-10-11T15:30:24.599Z,5.37
2017-10-11T15:33:51.376Z,5.30
2017-10-11T15:37:17.565Z,4.30
2017-10-11T15:40:50.080Z,7.80
2017-10-11T15:44:19.012Z,4.40
2017-10-11T15:47:44.961Z,5.03
2017-10-11T15:51:10.399Z,4.73
2017-10-11T15:54:36.282Z,4.03
2017-10-11T15:58:07.610Z,4.00
2017-10-11T16:01:33.327Z,4.47
2017-10-11T16:04:58.611Z,4.57
2017-10-11T16:08:24.271Z,4.50
2017-10-11T16:11:50.725Z,4.00
2017-10-11T16:15:17.279Z,3.93
2017-10-11T16:18:42.428Z,4.03
2017-10-11T16:22:07.828Z,5.33
2017-10-11T16:25:33.278Z,3.50
2017-10-11T16:28:58.755Z,4.20
2017-10-11T16:32:28.599Z,4.10
2017-10-11T16:35:57.714Z,4.63
2017-10-11T16:39:23.157Z,4.17
2017-10-11T16:42:49.756Z,3.37
2017-10-11T16:46:15.547Z,4.30
2017-10-11T16:49:41.755Z,3.30
2017-10-11T16:53:10.257Z,3.67
2017-10-11T16:56:36.420Z,3.87
2017-10-11T17:00:02.436Z,4.20
2017-10-11T17:03:27.914Z,4.30
2017-10-11T17:06:58.433Z,4.20
2017-10-11T17:10:25.523Z,4.03
2017-10-11T17:13:51.035Z,4.90
2017-10-11T17:17:16.830Z,5.00
2017-10-11T17:20:42.523Z,4.40
2017-10-11T17:24:08.779Z,4.43
2017-10-11T17:27:39.755Z,4.40
2017-10-11T17:31:06.295Z,3.63
2017-10-11T17:34:31.979Z,4.70
2017-10-11T17:37:59.237Z,5.40
2017-10-11T17:41:27.349Z,4.73
2017-10-11T17:44:53.561Z,3.93
2017-10-11T17:48:19.565Z,5.10
2017-10-11T17:51:45.340Z,3.43
2017-10-11T17:55:11.286Z,3.70
2017-10-11T17:58:37.441Z,3.90
2017-10-11T18:02:04.462Z,4.83
2017-10-11T18:05:34.492Z,4.57
2017-10-11T18:09:08.470Z,4.40
2017-10-11T18:12:37.622Z,4.73
2017-10-11T18:16:10.322Z,4.13
2017-10-11T18:19:37.692Z,3.67
2017-10-11T18:23:05.903Z,4.30
2017-10-11T18:26:31.777Z,5.70
2017-10-11T18:29:58.674Z,4.60
2017-10-11T18:33:26.204Z,4.40
2017-10-11T18:36:54.306Z,4.33
2017-10-11T18:40:23.575Z,5.60
2017-10-11T18:43:57.682Z,4.63
2017-10-11T18:47:29.632Z,4.57
2017-10-11T18:50:57.571Z,4.03
2017-10-11T18:54:28.264Z,3.70
2017-10-11T18:57:57.598Z,5.27
2017-10-11T19:01:28.704Z,5.23
2017-10-11T19:04:58.469Z,5.37
2017-10-11T19:08:33.660Z,4.60
2017-10-11T19:12:02.565Z,4.30
2017-10-11T19:15:37.336Z,4.80
2017-10-11T19:19:08.550Z,3.80
2017-10-11T19:22:38.494Z,5.63
2017-10-11T19:26:06.540Z,4.27
2017-10-11T19:29:36.008Z,3.80
2017-10-11T19:33:06.578Z,3.90
2017-10-11T19:36:38.036Z,4.70
2017-10-11T19:40:07.359Z,4.50
2017-10-11T19:43:36.374Z,5.13
2017-10-11T19:47:06.441Z,4.23
2017-10-11T19:50:35.364Z,4.50
2017-10-11T19:54:06.387Z,3.97
2017-10-11T19:57:37.710Z,4.30
2017-10-11T20:01:07.829Z,3.60
2017-10-11T20:04:42.133Z,3.90
2017-10-11T20:08:08.976Z,3.97
2017-10-11T20:11:37.755Z,3.30
2017-10-11T20:15:04.337Z,3.60
2017-10-11T20:18:30.262Z,3.60
2017-10-11T20:21:56.398Z,3.50
2017-10-11T20:25:22.561Z,4.40
2017-10-11T20:28:48.693Z,3.60
2017-10-11T20:32:15.183Z,3.17
2017-10-11T20:35:41.581Z,3.80
2017-10-11T20:39:07.216Z,3.53
2017-10-11T20:42:33.517Z,3.33
2017-10-11T20:45:59.587Z,3.90
2017-10-11T20:49:25.506Z,3.50
2017-10-11T20:52:51.269Z,3.50
2017-10-11T20:56:16.643Z,4.40
2017-10-11T20:59:44.072Z,3.63
2017-10-11T21:03:09.595Z,3.73
2017-10-11T21:06:35.349Z,3.30
2017-10-11T21:10:01.256Z,2.57
2017-10-11T21:13:26.764Z,3.23
2017-10-11T21:16:52.456Z,5.13
2017-10-11T21:20:19.471Z,2.80
2017-10-11T21:23:44.941Z,3.00
2017-10-11T21:27:11.666Z,2.77
2017-10-11T21:30:38.827Z,3.47
2017-10-11T21:34:04.246Z,7.80
2017-10-11T21:37:30.141Z,2.80
2017-10-11T21:40:55.453Z,3.63
2017-10-11T21:44:20.576Z,2.70
2017-10-11T21:47:45.855Z,3.47
2017-10-11T21:51:11.560Z,2.90
2017-10-11T21:54:38.042Z,3.47
2017-10-11T21:58:03.153Z,2.30
2017-10-11T22:01:29.154Z,2.70
2017-10-11T22:04:54.642Z,2.40
2017-10-11T22:08:20.786Z,3.40
2017-10-11T22:11:46.079Z,3.03
2017-10-11T22:15:11.751Z,3.00
2017-10-11T22:18:38.475Z,3.40
2017-10-11T22:22:04.559Z,3.00
2017-10-11T22:25:29.941Z,7.47
2017-10-11T22:28:55.708Z,2.67
2017-10-11T22:32:21.449Z,2.70
2017-10-11T22:35:47.048Z,2.60
2017-10-11T22:39:12.422Z,3.03
2017-10-11T22:42:37.906Z,2.70
2017-10-11T22:46:03.445Z,2.83
2017-10-11T22:49:29.349Z,2.03
2017-10-11T22:52:54.750Z,3.90
2017-10-11T22:56:20.278Z,2.17
2017-10-11T22:59:46.216Z,2.20
2017-10-11T23:03:12.213Z,2.40
2017-10-11T23:06:37.652Z,2.50
2017-10-11T23:10:03.153Z,2.00
2017-10-11T23:13:28.494Z,2.43
2017-10-11T23:16:54.015Z,2.00
2017-10-11T23:20:21.794Z,4.13
2017-10-11T23:23:47.177Z,2.77
2017-10-11T23:27:12.612Z,2.30
2017-10-11T23:30:38.770Z,3.90
2017-10-11T23:34:04.327Z,3.90
2017-10-11T23:37:29.888Z,2.37
2017-10-11T23:40:56.641Z,2.00
2017-10-11T23:44:22.111Z,3.03
2017-10-11T23:47:47.545Z,2.37
2017-10-11T23:51:13.404Z,2.23
2017-10-11T23:54:38.730Z,2.30
2017-10-11T23:58:04.140Z,1.70
